sensor_id;sensor_type;location;lat;lon;timestamp;pressure;altitude;pressure_sealevel;temperature;humidity
57568;BME280;43403;51.948;5.922;2023-05-03T00:00:06;102888.97;;;8.66;72.03
57568;BME280;43403;51.948;5.922;2023-05-03T00:02:34;102889.81;;;8.67;72.27
57568;BME280;43403;51.948;5.922;2023-05-03T00:05:05;102894.28;;;8.65;71.65
57568;BME280;43403;51.948;5.922;2023-05-03T00:07:33;102894.63;;;8.59;71.16
57568;BME280;43403;51.948;5.922;2023-05-03T00:10:00;102887.19;;;8.51;71.79
57568;BME280;43403;51.948;5.922;2023-05-03T00:12:26;102886.41;;;8.49;71.47
57568;BME280;43403;51.948;5.922;2023-05-03T00:14:53;102894.25;;;8.49;71.45
57568;BME280;43403;51.948;5.922;2023-05-03T00:17:19;102897.03;;;8.46;70.79
57568;BME280;43403;51.948;5.922;2023-05-03T00:19:47;102892.63;;;8.46;71.57
57568;BME280;43403;51.948;5.922;2023-05-03T00:22:13;102887.59;;;8.43;70.45
57568;BME280;43403;51.948;5.922;2023-05-03T00:24:40;102886.09;;;8.38;71.56
57568;BME280;43403;51.948;5.922;2023-05-03T00:27:06;102891.41;;;8.36;71.34
57568;BME280;43403;51.948;5.922;2023-05-03T00:29:33;102891.34;;;8.38;71.08
57568;BME280;43403;51.948;5.922;2023-05-03T00:31:59;102887.88;;;8.37;70.59
57568;BME280;43403;51.948;5.922;2023-05-03T00:34:27;102887.03;;;8.37;71.22
57568;BME280;43403;51.948;5.922;2023-05-03T00:36:53;102887.34;;;8.30;71.08
57568;BME280;43403;51.948;5.922;2023-05-03T00:39:20;102889.38;;;8.25;70.95
57568;BME280;43403;51.948;5.922;2023-05-03T00:41:46;102888.50;;;8.25;70.96
57568;BME280;43403;51.948;5.922;2023-05-03T00:44:13;102893.84;;;8.23;72.00
57568;BME280;43403;51.948;5.922;2023-05-03T00:46:39;102892.91;;;8.24;71.12
57568;BME280;43403;51.948;5.922;2023-05-03T00:49:06;102886.16;;;8.20;72.24
57568;BME280;43403;51.948;5.922;2023-05-03T00:51:32;102888.16;;;8.15;72.58
57568;BME280;43403;51.948;5.922;2023-05-03T00:53:59;102888.06;;;8.17;71.62
57568;BME280;43403;51.948;5.922;2023-05-03T00:56:26;102885.63;;;8.14;72.16
57568;BME280;43403;51.948;5.922;2023-05-03T00:58:56;102884.00;;;8.11;72.37
57568;BME280;43403;51.948;5.922;2023-05-03T01:01:23;102890.50;;;8.04;74.81
57568;BME280;43403;51.948;5.922;2023-05-03T01:03:50;102887.88;;;8.04;73.37
57568;BME280;43403;51.948;5.922;2023-05-03T01:11:27;102884.91;;;7.94;75.15
57568;BME280;43403;51.948;5.922;2023-05-03T01:14:00;102885.09;;;7.89;75.74
57568;BME280;43403;51.948;5.922;2023-05-03T01:16:37;102880.81;;;7.88;75.37
57568;BME280;43403;51.948;5.922;2023-05-03T01:19:18;102879.81;;;7.91;74.93
57568;BME280;43403;51.948;5.922;2023-05-03T01:21:58;102869.34;;;7.91;73.88
57568;BME280;43403;51.948;5.922;2023-05-03T01:24:30;102891.03;;;7.93;74.64
57568;BME280;43403;51.948;5.922;2023-05-03T01:26:57;102888.47;;;7.91;74.90
57568;BME280;43403;51.948;5.922;2023-05-03T01:29:24;102891.97;;;7.92;74.12
57568;BME280;43403;51.948;5.922;2023-05-03T01:31:58;102895.81;;;7.85;76.18
57568;BME280;43403;51.948;5.922;2023-05-03T01:34:54;102902.13;;;7.81;76.96
57568;BME280;43403;51.948;5.922;2023-05-03T01:37:23;102901.50;;;7.76;76.03
57568;BME280;43403;51.948;5.922;2023-05-03T01:39:57;102900.72;;;7.73;77.15
57568;BME280;43403;51.948;5.922;2023-05-03T01:42:25;102889.56;;;7.70;76.83
57568;BME280;43403;51.948;5.922;2023-05-03T01:44:53;102895.88;;;7.66;78.76
57568;BME280;43403;51.948;5.922;2023-05-03T01:47:20;102904.41;;;7.69;77.54
57568;BME280;43403;51.948;5.922;2023-05-03T01:49:46;102900.78;;;7.72;77.82
57568;BME280;43403;51.948;5.922;2023-05-03T01:52:13;102895.88;;;7.66;77.55
57568;BME280;43403;51.948;5.922;2023-05-03T01:54:39;102891.72;;;7.62;78.16
57568;BME280;43403;51.948;5.922;2023-05-03T01:57:06;102889.34;;;7.57;79.55
57568;BME280;43403;51.948;5.922;2023-05-03T01:59:32;102893.75;;;7.57;79.36
57568;BME280;43403;51.948;5.922;2023-05-03T02:01:58;102884.19;;;7.56;79.26
57568;BME280;43403;51.948;5.922;2023-05-03T02:04:25;102880.00;;;7.53;79.60
57568;BME280;43403;51.948;5.922;2023-05-03T02:06:51;102887.66;;;7.56;77.65
57568;BME280;43403;51.948;5.922;2023-05-03T02:09:18;102886.03;;;7.53;79.97
57568;BME280;43403;51.948;5.922;2023-05-03T02:11:44;102891.97;;;7.57;79.60
57568;BME280;43403;51.948;5.922;2023-05-03T02:14:11;102886.81;;;7.56;78.78
57568;BME280;43403;51.948;5.922;2023-05-03T02:16:37;102884.50;;;7.49;79.61
57568;BME280;43403;51.948;5.922;2023-05-03T02:19:04;102893.03;;;7.53;81.70
57568;BME280;43403;51.948;5.922;2023-05-03T02:21:32;102894.59;;;7.57;79.43
57568;BME280;43403;51.948;5.922;2023-05-03T02:23:59;102886.94;;;7.52;80.44
57568;BME280;43403;51.948;5.922;2023-05-03T02:26:26;102894.97;;;7.49;80.72
57568;BME280;43403;51.948;5.922;2023-05-03T02:28:52;102889.09;;;7.44;80.59
57568;BME280;43403;51.948;5.922;2023-05-03T02:31:21;102889.09;;;7.44;81.68
57568;BME280;43403;51.948;5.922;2023-05-03T02:33:48;102891.88;;;7.41;81.80
57568;BME280;43403;51.948;5.922;2023-05-03T02:36:14;102885.13;;;7.37;81.84
57568;BME280;43403;51.948;5.922;2023-05-03T02:38:40;102883.66;;;7.31;82.50
57568;BME280;43403;51.948;5.922;2023-05-03T02:41:07;102875.88;;;7.30;81.83
57568;BME280;43403;51.948;5.922;2023-05-03T02:43:33;102877.66;;;7.29;82.14
57568;BME280;43403;51.948;5.922;2023-05-03T02:46:00;102882.19;;;7.26;84.92
57568;BME280;43403;51.948;5.922;2023-05-03T02:48:26;102880.56;;;7.23;86.22
57568;BME280;43403;51.948;5.922;2023-05-03T02:50:53;102870.56;;;7.14;86.47
57568;BME280;43403;51.948;5.922;2023-05-03T02:53:20;102874.06;;;7.13;86.26
57568;BME280;43403;51.948;5.922;2023-05-03T02:55:46;102876.69;;;7.13;85.53
57568;BME280;43403;51.948;5.922;2023-05-03T02:58:13;102865.47;;;7.11;85.84
57568;BME280;43403;51.948;5.922;2023-05-03T03:00:40;102860.50;;;7.06;85.88
57568;BME280;43403;51.948;5.922;2023-05-03T03:03:06;102856.41;;;7.01;88.01
57568;BME280;43403;51.948;5.922;2023-05-03T03:05:33;102860.91;;;6.97;88.02
57568;BME280;43403;51.948;5.922;2023-05-03T03:08:00;102857.72;;;6.92;88.82
57568;BME280;43403;51.948;5.922;2023-05-03T03:10:26;102851.72;;;6.90;88.58
57568;BME280;43403;51.948;5.922;2023-05-03T03:12:53;102851.97;;;6.84;88.16
57568;BME280;43403;51.948;5.922;2023-05-03T03:15:19;102849.47;;;6.82;88.87
57568;BME280;43403;51.948;5.922;2023-05-03T03:17:46;102842.78;;;6.77;90.18
57568;BME280;43403;51.948;5.922;2023-05-03T03:20:12;102843.06;;;6.70;91.17
57568;BME280;43403;51.948;5.922;2023-05-03T03:22:39;102835.38;;;6.67;92.31
57568;BME280;43403;51.948;5.922;2023-05-03T03:25:06;102840.59;;;6.67;92.13
57568;BME280;43403;51.948;5.922;2023-05-03T03:27:33;102846.94;;;6.62;92.74
57568;BME280;43403;51.948;5.922;2023-05-03T03:29:59;102843.69;;;6.57;93.71
57568;BME280;43403;51.948;5.922;2023-05-03T03:32:26;102846.03;;;6.63;93.79
57568;BME280;43403;51.948;5.922;2023-05-03T03:34:53;102852.97;;;6.62;92.58
57568;BME280;43403;51.948;5.922;2023-05-03T03:37:19;102862.72;;;6.59;92.32
57568;BME280;43403;51.948;5.922;2023-05-03T03:39:48;102868.97;;;6.54;92.27
57568;BME280;43403;51.948;5.922;2023-05-03T03:42:14;102865.59;;;6.52;91.65
57568;BME280;43403;51.948;5.922;2023-05-03T03:44:42;102856.94;;;6.52;90.49
57568;BME280;43403;51.948;5.922;2023-05-03T03:47:09;102859.69;;;6.49;92.36
57568;BME280;43403;51.948;5.922;2023-05-03T03:49:35;102866.53;;;6.51;92.92
57568;BME280;43403;51.948;5.922;2023-05-03T03:52:02;102867.53;;;6.49;92.49
57568;BME280;43403;51.948;5.922;2023-05-03T03:54:28;102861.66;;;6.44;93.70
57568;BME280;43403;51.948;5.922;2023-05-03T03:56:55;102858.91;;;6.47;93.34
57568;BME280;43403;51.948;5.922;2023-05-03T03:59:21;102869.34;;;6.47;93.55
57568;BME280;43403;51.948;5.922;2023-05-03T04:01:47;102863.25;;;6.46;94.01
57568;BME280;43403;51.948;5.922;2023-05-03T04:04:14;102865.88;;;6.46;94.45
57568;BME280;43403;51.948;5.922;2023-05-03T04:06:41;102875.59;;;6.43;94.52
57568;BME280;43403;51.948;5.922;2023-05-03T04:09:07;102872.00;;;6.45;93.50
57568;BME280;43403;51.948;5.922;2023-05-03T04:11:34;102869.41;;;6.45;93.58
57568;BME280;43403;51.948;5.922;2023-05-03T04:14:02;102864.25;;;6.44;92.63
57568;BME280;43403;51.948;5.922;2023-05-03T04:16:29;102875.53;;;6.44;92.00
57568;BME280;43403;51.948;5.922;2023-05-03T04:18:55;102874.69;;;6.44;93.69
57568;BME280;43403;51.948;5.922;2023-05-03T04:21:22;102876.53;;;6.42;93.09
57568;BME280;43403;51.948;5.922;2023-05-03T04:23:48;102883.41;;;6.43;93.03
57568;BME280;43403;51.948;5.922;2023-05-03T04:26:15;102880.97;;;6.40;93.83
57568;BME280;43403;51.948;5.922;2023-05-03T04:28:56;102877.41;;;6.41;92.06
57568;BME280;43403;51.948;5.922;2023-05-03T04:31:24;102887.94;;;6.39;94.35
57568;BME280;43403;51.948;5.922;2023-05-03T04:33:50;102890.59;;;6.38;94.14
57568;BME280;43403;51.948;5.922;2023-05-03T04:36:17;102897.59;;;6.37;94.03
57568;BME280;43403;51.948;5.922;2023-05-03T04:38:44;102897.66;;;6.36;93.26
57568;BME280;43403;51.948;5.922;2023-05-03T04:41:10;102895.03;;;6.36;94.83
57568;BME280;43403;51.948;5.922;2023-05-03T04:43:41;102899.47;;;6.33;93.16
57568;BME280;43403;51.948;5.922;2023-05-03T04:46:08;102903.75;;;6.34;94.10
57568;BME280;43403;51.948;5.922;2023-05-03T04:48:35;102900.25;;;6.36;94.46
57568;BME280;43403;51.948;5.922;2023-05-03T04:51:02;102909.69;;;6.38;93.11
57568;BME280;43403;51.948;5.922;2023-05-03T04:53:28;102916.53;;;6.41;93.83
57568;BME280;43403;51.948;5.922;2023-05-03T04:55:55;102915.84;;;6.37;96.72
57568;BME280;43403;51.948;5.922;2023-05-03T04:58:22;102922.66;;;6.40;95.03
57568;BME280;43403;51.948;5.922;2023-05-03T05:00:49;102934.53;;;6.47;94.74
57568;BME280;43403;51.948;5.922;2023-05-03T05:03:15;102935.38;;;6.47;94.85
57568;BME280;43403;51.948;5.922;2023-05-03T05:05:42;102940.31;;;6.53;93.88
57568;BME280;43403;51.948;5.922;2023-05-03T05:08:08;102941.09;;;6.56;95.39
57568;BME280;43403;51.948;5.922;2023-05-03T05:10:36;102946.19;;;6.59;95.41
57568;BME280;43403;51.948;5.922;2023-05-03T05:13:03;102940.81;;;6.62;94.08
57568;BME280;43403;51.948;5.922;2023-05-03T05:15:30;102945.81;;;6.66;94.28
57568;BME280;43403;51.948;5.922;2023-05-03T05:17:56;102947.56;;;6.66;93.63
57568;BME280;43403;51.948;5.922;2023-05-03T05:20:23;102949.00;;;6.73;91.51
57568;BME280;43403;51.948;5.922;2023-05-03T05:22:50;102941.03;;;6.76;92.53
57568;BME280;43403;51.948;5.922;2023-05-03T05:25:17;102956.25;;;6.85;91.69
57568;BME280;43403;51.948;5.922;2023-05-03T05:27:43;102951.03;;;6.85;92.12
57568;BME280;43403;51.948;5.922;2023-05-03T05:30:10;102952.59;;;6.89;93.68
57568;BME280;43403;51.948;5.922;2023-05-03T05:32:36;102946.59;;;6.87;94.47
57568;BME280;43403;51.948;5.922;2023-05-03T05:35:03;102953.31;;;6.93;95.79
57568;BME280;43403;51.948;5.922;2023-05-03T05:37:30;102955.78;;;6.96;95.62
57568;BME280;43403;51.948;5.922;2023-05-03T05:39:57;102960.84;;;6.99;93.63
57568;BME280;43403;51.948;5.922;2023-05-03T05:42:23;102959.88;;;7.02;95.32
57568;BME280;43403;51.948;5.922;2023-05-03T05:44:50;102961.34;;;7.07;95.65
57568;BME280;43403;51.948;5.922;2023-05-03T05:47:17;102962.81;;;7.13;94.17
57568;BME280;43403;51.948;5.922;2023-05-03T05:49:44;102964.53;;;7.14;96.72
57568;BME280;43403;51.948;5.922;2023-05-03T05:52:10;102956.53;;;7.17;96.33
57568;BME280;43403;51.948;5.922;2023-05-03T05:54:36;102958.06;;;7.21;96.97
57568;BME280;43403;51.948;5.922;2023-05-03T05:57:03;102957.88;;;7.26;95.15
57568;BME280;43403;51.948;5.922;2023-05-03T05:59:29;102964.72;;;7.28;97.16
57568;BME280;43403;51.948;5.922;2023-05-03T06:01:56;102967.25;;;7.30;96.31
57568;BME280;43403;51.948;5.922;2023-05-03T06:04:25;102964.41;;;7.35;95.52
57568;BME280;43403;51.948;5.922;2023-05-03T06:06:52;102967.81;;;7.37;93.99
57568;BME280;43403;51.948;5.922;2023-05-03T06:09:19;102970.28;;;7.40;92.83
57568;BME280;43403;51.948;5.922;2023-05-03T06:11:50;102958.91;;;7.41;91.35
57568;BME280;43403;51.948;5.922;2023-05-03T06:14:17;102953.47;;;7.45;89.33
57568;BME280;43403;51.948;5.922;2023-05-03T06:16:45;102959.41;;;7.49;87.27
57568;BME280;43403;51.948;5.922;2023-05-03T06:19:12;102957.41;;;7.54;87.08
57568;BME280;43403;51.948;5.922;2023-05-03T06:21:39;102960.56;;;7.61;87.25
57568;BME280;43403;51.948;5.922;2023-05-03T06:24:05;102952.50;;;7.65;86.96
57568;BME280;43403;51.948;5.922;2023-05-03T06:26:32;102951.59;;;7.66;85.16
57568;BME280;43403;51.948;5.922;2023-05-03T06:28:58;102958.25;;;7.72;82.64
57568;BME280;43403;51.948;5.922;2023-05-03T06:31:26;102952.13;;;7.73;83.23
57568;BME280;43403;51.948;5.922;2023-05-03T06:33:52;102952.59;;;7.81;80.67
57568;BME280;43403;51.948;5.922;2023-05-03T06:36:19;102962.91;;;7.84;82.79
57568;BME280;43403;51.948;5.922;2023-05-03T06:38:46;102960.06;;;7.89;82.96
57568;BME280;43403;51.948;5.922;2023-05-03T06:41:12;102958.91;;;7.95;83.91
57568;BME280;43403;51.948;5.922;2023-05-03T06:43:39;102967.66;;;7.93;82.38
57568;BME280;43403;51.948;5.922;2023-05-03T06:46:05;102957.13;;;7.95;81.58
57568;BME280;43403;51.948;5.922;2023-05-03T06:48:31;102954.31;;;8.00;81.79
57568;BME280;43403;51.948;5.922;2023-05-03T06:50:58;102955.06;;;8.02;80.50
57568;BME280;43403;51.948;5.922;2023-05-03T06:53:25;102948.59;;;8.09;79.92
57568;BME280;43403;51.948;5.922;2023-05-03T06:55:51;102949.22;;;8.14;79.21
57568;BME280;43403;51.948;5.922;2023-05-03T06:58:18;102950.66;;;8.20;80.40
57568;BME280;43403;51.948;5.922;2023-05-03T07:00:44;102939.28;;;8.21;77.83
57568;BME280;43403;51.948;5.922;2023-05-03T07:03:11;102942.31;;;8.29;74.64
57568;BME280;43403;51.948;5.922;2023-05-03T07:05:39;102934.00;;;8.38;74.49
57568;BME280;43403;51.948;5.922;2023-05-03T07:08:05;102938.94;;;8.44;74.79
57568;BME280;43403;51.948;5.922;2023-05-03T07:10:32;102939.72;;;8.46;75.53
57568;BME280;43403;51.948;5.922;2023-05-03T07:12:59;102939.63;;;8.48;76.41
57568;BME280;43403;51.948;5.922;2023-05-03T07:15:26;102939.38;;;8.52;75.53
57568;BME280;43403;51.948;5.922;2023-05-03T07:17:52;102943.56;;;8.57;75.30
57568;BME280;43403;51.948;5.922;2023-05-03T07:20:19;102944.97;;;8.62;75.59
57568;BME280;43403;51.948;5.922;2023-05-03T07:22:45;102951.75;;;8.66;75.58
57568;BME280;43403;51.948;5.922;2023-05-03T07:25:11;102948.22;;;8.67;75.21
57568;BME280;43403;51.948;5.922;2023-05-03T07:27:39;102951.31;;;8.74;74.92
57568;BME280;43403;51.948;5.922;2023-05-03T07:30:06;102945.25;;;8.74;74.25
57568;BME280;43403;51.948;5.922;2023-05-03T07:32:33;102957.03;;;8.82;73.55
57568;BME280;43403;51.948;5.922;2023-05-03T07:35:00;102944.59;;;8.86;73.62
57568;BME280;43403;51.948;5.922;2023-05-03T07:37:26;102939.81;;;8.94;72.09
57568;BME280;43403;51.948;5.922;2023-05-03T07:39:53;102935.91;;;9.01;72.89
57568;BME280;43403;51.948;5.922;2023-05-03T07:42:19;102933.97;;;9.05;73.11
57568;BME280;43403;51.948;5.922;2023-05-03T07:44:46;102920.53;;;9.11;72.62
57568;BME280;43403;51.948;5.922;2023-05-03T07:47:12;102915.81;;;9.18;71.66
57568;BME280;43403;51.948;5.922;2023-05-03T07:49:39;102915.63;;;9.21;72.07
57568;BME280;43403;51.948;5.922;2023-05-03T07:52:05;102913.53;;;9.27;70.61
57568;BME280;43403;51.948;5.922;2023-05-03T07:54:32;102907.84;;;9.35;70.52
57568;BME280;43403;51.948;5.922;2023-05-03T07:56:58;102896.63;;;9.33;69.05
57568;BME280;43403;51.948;5.922;2023-05-03T07:59:25;102905.03;;;9.38;70.47
57568;BME280;43403;51.948;5.922;2023-05-03T08:01:51;102901.31;;;9.42;70.42
57568;BME280;43403;51.948;5.922;2023-05-03T08:04:18;102894.81;;;9.49;67.65
57568;BME280;43403;51.948;5.922;2023-05-03T08:06:45;102890.91;;;9.57;67.05
57568;BME280;43403;51.948;5.922;2023-05-03T08:09:11;102886.31;;;9.60;66.23
57568;BME280;43403;51.948;5.922;2023-05-03T08:11:39;102879.63;;;9.70;65.67
57568;BME280;43403;51.948;5.922;2023-05-03T08:14:09;102878.88;;;9.97;65.60
57568;BME280;43403;51.948;5.922;2023-05-03T08:16:35;102882.47;;;10.25;65.88
57568;BME280;43403;51.948;5.922;2023-05-03T08:19:02;102883.41;;;10.67;65.07
57568;BME280;43403;51.948;5.922;2023-05-03T08:21:29;102878.09;;;10.96;62.05
57568;BME280;43403;51.948;5.922;2023-05-03T08:23:56;102884.53;;;11.32;60.73
57568;BME280;43403;51.948;5.922;2023-05-03T08:26:22;102892.09;;;11.76;60.30
57568;BME280;43403;51.948;5.922;2023-05-03T08:28:49;102882.34;;;12.04;59.14
57568;BME280;43403;51.948;5.922;2023-05-03T08:31:15;102889.78;;;12.36;57.84
57568;BME280;43403;51.948;5.922;2023-05-03T08:33:42;102887.09;;;12.61;56.80
57568;BME280;43403;51.948;5.922;2023-05-03T08:36:09;102887.44;;;12.94;57.62
57568;BME280;43403;51.948;5.922;2023-05-03T08:38:35;102885.41;;;13.21;55.98
57568;BME280;43403;51.948;5.922;2023-05-03T08:41:23;102878.31;;;13.46;54.46
57568;BME280;43403;51.948;5.922;2023-05-03T08:43:55;102881.50;;;13.74;54.50
57568;BME280;43403;51.948;5.922;2023-05-03T08:46:22;102877.09;;;13.85;53.23
57568;BME280;43403;51.948;5.922;2023-05-03T08:48:50;102874.59;;;14.07;53.26
57568;BME280;43403;51.948;5.922;2023-05-03T08:51:19;102877.97;;;14.31;53.40
57568;BME280;43403;51.948;5.922;2023-05-03T08:53:47;102883.69;;;14.48;52.22
57568;BME280;43403;51.948;5.922;2023-05-03T08:56:28;102863.91;;;14.65;52.57
57568;BME280;43403;51.948;5.922;2023-05-03T08:58:55;102863.25;;;14.83;51.68
57568;BME280;43403;51.948;5.922;2023-05-03T09:01:22;102846.25;;;14.97;51.05
57568;BME280;43403;51.948;5.922;2023-05-03T09:03:50;102850.28;;;15.13;50.51
57568;BME280;43403;51.948;5.922;2023-05-03T09:06:22;102840.56;;;15.34;49.51
57568;BME280;43403;51.948;5.922;2023-05-03T09:08:52;102848.44;;;15.46;48.60
57568;BME280;43403;51.948;5.922;2023-05-03T09:11:39;102854.06;;;15.52;48.83
57568;BME280;43403;51.948;5.922;2023-05-03T09:14:13;102858.53;;;15.73;49.63
57568;BME280;43403;51.948;5.922;2023-05-03T09:16:41;102865.16;;;15.88;50.15
57568;BME280;43403;51.948;5.922;2023-05-03T09:19:10;102864.34;;;15.97;48.86
57568;BME280;43403;51.948;5.922;2023-05-03T09:21:39;102873.09;;;16.19;48.36
57568;BME280;43403;51.948;5.922;2023-05-03T09:26:39;102874.56;;;16.33;47.58
57568;BME280;43403;51.948;5.922;2023-05-03T09:29:08;102883.25;;;16.45;47.89
57568;BME280;43403;51.948;5.922;2023-05-03T09:31:35;102874.31;;;16.46;46.29
57568;BME280;43403;51.948;5.922;2023-05-03T09:34:19;102874.06;;;16.58;46.80
57568;BME280;43403;51.948;5.922;2023-05-03T09:36:46;102860.38;;;16.53;46.33
57568;BME280;43403;51.948;5.922;2023-05-03T09:39:17;102861.13;;;16.75;46.34
57568;BME280;43403;51.948;5.922;2023-05-03T09:41:44;102862.53;;;16.79;46.89
57568;BME280;43403;51.948;5.922;2023-05-03T09:44:11;102864.53;;;16.96;47.57
57568;BME280;43403;51.948;5.922;2023-05-03T09:46:38;102861.31;;;17.03;46.40
57568;BME280;43403;51.948;5.922;2023-05-03T09:49:04;102853.91;;;17.16;46.31
57568;BME280;43403;51.948;5.922;2023-05-03T09:51:31;102861.19;;;17.24;46.68
57568;BME280;43403;51.948;5.922;2023-05-03T09:53:58;102853.78;;;17.27;45.14
57568;BME280;43403;51.948;5.922;2023-05-03T09:56:25;102854.59;;;17.37;45.62
57568;BME280;43403;51.948;5.922;2023-05-03T09:58:53;102859.44;;;17.52;46.18
57568;BME280;43403;51.948;5.922;2023-05-03T10:01:20;102857.09;;;17.49;45.36
57568;BME280;43403;51.948;5.922;2023-05-03T10:03:50;102859.28;;;17.63;45.65
57568;BME280;43403;51.948;5.922;2023-05-03T10:11:36;102848.38;;;17.76;44.47
57568;BME280;43403;51.948;5.922;2023-05-03T10:14:05;102857.16;;;17.86;44.29
57568;BME280;43403;51.948;5.922;2023-05-03T10:16:36;102847.63;;;17.93;44.03
57568;BME280;43403;51.948;5.922;2023-05-03T10:19:32;102854.88;;;18.01;44.05
57568;BME280;43403;51.948;5.922;2023-05-03T10:24:34;102845.75;;;18.13;43.28
57568;BME280;43403;51.948;5.922;2023-05-03T10:27:02;102848.09;;;18.16;44.44
57568;BME280;43403;51.948;5.922;2023-05-03T10:35:00;102845.22;;;18.73;44.37
57568;BME280;43403;51.948;5.922;2023-05-03T10:37:31;102844.69;;;18.70;43.87
57568;BME280;43403;51.948;5.922;2023-05-03T10:40:14;102841.84;;;18.81;43.45
57568;BME280;43403;51.948;5.922;2023-05-03T10:42:46;102841.78;;;18.91;43.10
57568;BME280;43403;51.948;5.922;2023-05-03T10:50:33;102835.06;;;19.05;42.79
57568;BME280;43403;51.948;5.922;2023-05-03T10:52:59;102824.88;;;19.18;42.05
57568;BME280;43403;51.948;5.922;2023-05-03T10:55:26;102828.06;;;19.22;42.12
57568;BME280;43403;51.948;5.922;2023-05-03T10:57:55;102835.97;;;19.31;41.84
57568;BME280;43403;51.948;5.922;2023-05-03T11:00:32;102829.91;;;19.21;40.80
57568;BME280;43403;51.948;5.922;2023-05-03T11:05:47;102826.72;;;19.44;41.49
57568;BME280;43403;51.948;5.922;2023-05-03T11:08:18;102823.91;;;19.71;42.67
57568;BME280;43403;51.948;5.922;2023-05-03T11:10:48;102820.63;;;19.78;41.48
57568;BME280;43403;51.948;5.922;2023-05-03T11:13:15;102809.16;;;19.85;41.19
57568;BME280;43403;51.948;5.922;2023-05-03T11:15:42;102807.41;;;19.94;40.82
57568;BME280;43403;51.948;5.922;2023-05-03T11:18:09;102808.59;;;20.08;40.96
57568;BME280;43403;51.948;5.922;2023-05-03T11:20:39;102805.78;;;20.09;40.31
57568;BME280;43403;51.948;5.922;2023-05-03T11:23:05;102807.13;;;20.13;39.76
57568;BME280;43403;51.948;5.922;2023-05-03T11:25:32;102802.34;;;20.25;39.84
57568;BME280;43403;51.948;5.922;2023-05-03T11:28:00;102794.50;;;20.24;39.37
57568;BME280;43403;51.948;5.922;2023-05-03T11:30:28;102789.84;;;20.26;40.20
57568;BME280;43403;51.948;5.922;2023-05-03T11:32:54;102797.19;;;20.32;39.54
57568;BME280;43403;51.948;5.922;2023-05-03T11:35:22;102786.88;;;20.37;39.59
57568;BME280;43403;51.948;5.922;2023-05-03T11:37:51;102788.22;;;20.41;39.17
57568;BME280;43403;51.948;5.922;2023-05-03T11:40:18;102798.59;;;20.61;40.09
57568;BME280;43403;51.948;5.922;2023-05-03T11:42:58;102790.72;;;20.51;38.87
57568;BME280;43403;51.948;5.922;2023-05-03T11:45:29;102784.06;;;20.39;40.35
57568;BME280;43403;51.948;5.922;2023-05-03T11:47:57;102781.03;;;20.50;40.57
57568;BME280;43403;51.948;5.922;2023-05-03T11:53:14;102763.28;;;20.75;39.66
57568;BME280;43403;51.948;5.922;2023-05-03T11:55:42;102770.94;;;20.86;39.53
57568;BME280;43403;51.948;5.922;2023-05-03T11:58:12;102767.25;;;21.04;40.16
57568;BME280;43403;51.948;5.922;2023-05-03T12:00:46;102762.91;;;21.03;39.45
57568;BME280;43403;51.948;5.922;2023-05-03T12:03:23;102762.91;;;21.11;39.04
57568;BME280;43403;51.948;5.922;2023-05-03T12:05:57;102761.03;;;21.28;40.35
57568;BME280;43403;51.948;5.922;2023-05-03T12:08:29;102761.69;;;21.30;38.13
57568;BME280;43403;51.948;5.922;2023-05-03T12:11:01;102757.38;;;21.21;38.12
57568;BME280;43403;51.948;5.922;2023-05-03T12:13:31;102762.38;;;21.32;39.36
57568;BME280;43403;51.948;5.922;2023-05-03T12:16:01;102750.06;;;21.14;36.88
57568;BME280;43403;51.948;5.922;2023-05-03T12:18:51;102743.38;;;21.19;39.24
57568;BME280;43403;51.948;5.922;2023-05-03T12:21:23;102742.50;;;21.43;38.17
57568;BME280;43403;51.948;5.922;2023-05-03T12:23:54;102733.78;;;21.57;38.01
57568;BME280;43403;51.948;5.922;2023-05-03T12:26:22;102732.38;;;21.69;37.91
57568;BME280;43403;51.948;5.922;2023-05-03T12:28:50;102729.50;;;21.79;37.60
57568;BME280;43403;51.948;5.922;2023-05-03T12:31:21;102720.34;;;22.05;39.23
57568;BME280;43403;51.948;5.922;2023-05-03T12:33:48;102712.22;;;21.98;37.85
57568;BME280;43403;51.948;5.922;2023-05-03T12:36:35;102714.56;;;22.01;37.75
57568;BME280;43403;51.948;5.922;2023-05-03T12:39:03;102705.34;;;22.04;37.05
57568;BME280;43403;51.948;5.922;2023-05-03T12:41:35;102706.97;;;22.05;36.65
57568;BME280;43403;51.948;5.922;2023-05-03T12:44:04;102706.75;;;22.15;37.64
57568;BME280;43403;51.948;5.922;2023-05-03T12:46:36;102703.91;;;22.16;37.57
57568;BME280;43403;51.948;5.922;2023-05-03T12:49:03;102707.53;;;22.23;37.07
57568;BME280;43403;51.948;5.922;2023-05-03T12:51:33;102693.28;;;22.08;36.41
57568;BME280;43403;51.948;5.922;2023-05-03T12:54:00;102693.13;;;22.09;37.97
57568;BME280;43403;51.948;5.922;2023-05-03T12:56:27;102687.78;;;22.09;37.83
57568;BME280;43403;51.948;5.922;2023-05-03T12:58:58;102690.78;;;22.06;37.39
57568;BME280;43403;51.948;5.922;2023-05-03T13:01:45;102676.28;;;22.24;37.52
57568;BME280;43403;51.948;5.922;2023-05-03T13:04:31;102684.19;;;22.25;37.54
57568;BME280;43403;51.948;5.922;2023-05-03T13:07:18;102671.81;;;22.24;36.60
57568;BME280;43403;51.948;5.922;2023-05-03T13:09:55;102667.31;;;22.25;37.37
57568;BME280;43403;51.948;5.922;2023-05-03T13:12:24;102658.63;;;22.23;38.11
57568;BME280;43403;51.948;5.922;2023-05-03T13:14:53;102649.25;;;22.19;36.88
57568;BME280;43403;51.948;5.922;2023-05-03T13:17:20;102654.03;;;22.31;38.18
57568;BME280;43403;51.948;5.922;2023-05-03T13:19:49;102648.22;;;22.28;37.62
57568;BME280;43403;51.948;5.922;2023-05-03T13:22:16;102645.03;;;22.33;37.25
57568;BME280;43403;51.948;5.922;2023-05-03T13:24:45;102639.69;;;22.33;37.22
57568;BME280;43403;51.948;5.922;2023-05-03T13:27:11;102637.66;;;22.35;36.78
57568;BME280;43403;51.948;5.922;2023-05-03T13:29:39;102633.69;;;22.22;36.43
57568;BME280;43403;51.948;5.922;2023-05-03T13:32:06;102636.16;;;22.32;37.61
57568;BME280;43403;51.948;5.922;2023-05-03T13:34:34;102633.31;;;22.34;36.53